Time;durP1;ratioP1;P1;durP2;ratioP2;P2;SDS_P1;SDS_P2;PMS_P1;PMS_P2;Temp;Humidity;BMP_temperature;BMP_pressure;BME280_temperature;BME280_humidity;BME280_pressure;Samples;Min_cycle;Max_cycle;Signal;HPM_P1;HPM_P2
2021/11/14 00:01:01;;;;;;;;;;;12.70;99.90;;;;;;5034856;28;19915;-80
2021/11/14 00:03:27;;;;;;;;;;;12.80;99.90;;;;;;5034827;28;20372;-81
2021/11/14 00:05:53;;;;;;;;;;;12.70;99.90;;;;;;5034821;28;19909;-80
2021/11/14 00:08:20;;;;;;;;;;;12.80;99.90;;;;;;5035079;28;20302;-79
2021/11/14 00:10:47;;;;;;;;;;;12.80;99.90;;;;;;5034732;28;19909;-81
2021/11/14 00:13:13;;;;;;;;;;;12.90;99.90;;;;;;5034322;28;19947;-80
2021/11/14 00:15:39;;;;;;;;;;;12.90;99.90;;;;;;5033690;28;19905;-80
2021/11/14 00:18:05;;;;;;;;;;;13.00;99.90;;;;;;5034561;28;19955;-80
2021/11/14 00:20:31;;;;;;;;;;;12.90;99.90;;;;;;5034470;28;19913;-80
2021/11/14 00:22:57;;;;;;;;;;;13.00;99.90;;;;;;5034479;28;19928;-80
2021/11/14 00:25:23;;;;;;;;;;;13.00;99.90;;;;;;5034465;28;20320;-80
2021/11/14 00:27:49;;;;;;;;;;;12.90;99.90;;;;;;5034489;28;20334;-80
2021/11/14 00:30:14;;;;;;;;;;;12.90;99.90;;;;;;5034348;28;19905;-81
2021/11/14 00:32:40;;;;;;;;;;;12.90;99.90;;;;;;5034313;28;20281;-80
2021/11/14 00:35:08;;;;;;;;;;;12.80;99.90;;;;;;5034362;28;20316;-81
2021/11/14 00:37:35;;;;;;;;;;;12.80;99.90;;;;;;5034272;28;19948;-79
2021/11/14 00:40:03;;;;;;;;;;;12.90;99.90;;;;;;5034155;28;19909;-80
2021/11/14 00:42:28;;;;;;;;;;;12.80;99.90;;;;;;5034225;28;19905;-80
2021/11/14 00:44:54;;;;;;;;;;;12.80;99.90;;;;;;5034127;28;19920;-80
2021/11/14 00:47:20;;;;;;;;;;;12.80;99.90;;;;;;5034330;28;19905;-80
2021/11/14 00:49:46;;;;;;;;;;;12.90;99.90;;;;;;5034203;28;20032;-80
2021/11/14 00:52:12;;;;;;;;;;;13.00;99.90;;;;;;5034038;28;20278;-80
2021/11/14 00:54:37;;;;;;;;;;;12.90;99.90;;;;;;5034016;28;19912;-79
2021/11/14 00:57:04;;;;;;;;;;;12.70;99.90;;;;;;5034108;28;19905;-80
2021/11/14 00:59:30;;;;;;;;;;;12.70;99.90;;;;;;5033825;28;19905;-80
2021/11/14 01:01:55;;;;;;;;;;;12.60;99.90;;;;;;5033870;28;19905;-81
2021/11/14 01:04:21;;;;;;;;;;;12.50;99.90;;;;;;5034285;28;19955;-80
2021/11/14 01:06:46;;;;;;;;;;;12.50;99.90;;;;;;5033880;28;20346;-80
2021/11/14 01:09:12;;;;;;;;;;;12.80;99.90;;;;;;5033537;28;20396;-80
2021/11/14 01:11:38;;;;;;;;;;;12.70;99.90;;;;;;5033584;28;19921;-80
2021/11/14 01:14:04;;;;;;;;;;;12.70;99.90;;;;;;5033835;28;19912;-80
2021/11/14 01:16:29;;;;;;;;;;;12.70;99.90;;;;;;5033749;28;19905;-80
2021/11/14 01:18:55;;;;;;;;;;;12.80;99.90;;;;;;5034028;28;19912;-80
2021/11/14 01:21:21;;;;;;;;;;;12.90;99.90;;;;;;5033828;28;19916;-81
2021/11/14 01:23:47;;;;;;;;;;;12.80;99.90;;;;;;5033617;28;19994;-80
2021/11/14 01:26:13;;;;;;;;;;;12.80;99.90;;;;;;5033633;28;20018;-81
2021/11/14 01:28:39;;;;;;;;;;;12.90;99.90;;;;;;5037659;28;20372;-80
2021/11/14 01:31:06;;;;;;;;;;;13.00;99.90;;;;;;5037874;28;19904;-80
2021/11/14 01:33:32;;;;;;;;;;;13.00;99.90;;;;;;5037751;28;20358;-80
2021/11/14 01:35:58;;;;;;;;;;;12.90;99.90;;;;;;5037629;28;19905;-79
2021/11/14 01:38:25;;;;;;;;;;;12.80;99.90;;;;;;5037926;28;19905;-81
2021/11/14 01:40:53;;;;;;;;;;;12.90;99.90;;;;;;5037809;28;19909;-80
2021/11/14 01:43:20;;;;;;;;;;;12.90;99.90;;;;;;5037535;28;19905;-81
2021/11/14 01:45:46;;;;;;;;;;;12.80;99.90;;;;;;5037480;28;19909;-80
2021/11/14 01:48:12;;;;;;;;;;;12.80;99.90;;;;;;5037413;28;20276;-80
2021/11/14 01:50:38;;;;;;;;;;;12.70;99.90;;;;;;5037487;28;19905;-79
2021/11/14 01:53:04;;;;;;;;;;;12.70;99.90;;;;;;5037340;28;19951;-80
2021/11/14 01:55:31;;;;;;;;;;;12.60;99.90;;;;;;5037276;28;19905;-80
2021/11/14 01:57:57;;;;;;;;;;;12.60;99.90;;;;;;5035937;28;20361;-80
2021/11/14 02:00:31;;;;;;;;;;;12.60;99.90;;;;;;5037132;28;19920;-80
2021/11/14 02:02:58;;;;;;;;;;;12.50;99.90;;;;;;5037170;28;19954;-80
2021/11/14 02:05:24;;;;;;;;;;;12.40;99.90;;;;;;5037054;28;19909;-81
2021/11/14 02:07:54;;;;;;;;;;;12.40;99.90;;;;;;5037023;28;20352;-80
2021/11/14 02:10:22;;;;;;;;;;;12.60;99.90;;;;;;5037189;28;19912;-80
2021/11/14 02:12:48;;;;;;;;;;;12.60;99.90;;;;;;5036762;28;19917;-81
2021/11/14 02:15:13;;;;;;;;;;;12.60;99.90;;;;;;5036971;28;19911;-80
2021/11/14 02:17:39;;;;;;;;;;;12.70;99.90;;;;;;5035576;28;19905;-79
2021/11/14 02:20:06;;;;;;;;;;;12.70;99.90;;;;;;5036744;28;19908;-80
2021/11/14 02:22:32;;;;;;;;;;;12.70;99.90;;;;;;5036772;28;20385;-81
2021/11/14 02:24:58;;;;;;;;;;;12.70;99.90;;;;;;5036745;28;19905;-79
2021/11/14 02:27:23;;;;;;;;;;;12.70;99.90;;;;;;5036940;28;19937;-80
2021/11/14 02:29:49;;;;;;;;;;;12.60;99.90;;;;;;5037034;28;19905;-80
2021/11/14 02:32:14;;;;;;;;;;;12.70;99.90;;;;;;5036610;28;19905;-80
2021/11/14 02:34:40;;;;;;;;;;;12.70;99.90;;;;;;5036591;28;19905;-80
2021/11/14 02:37:06;;;;;;;;;;;12.70;99.90;;;;;;5036590;28;19966;-80
2021/11/14 02:39:32;;;;;;;;;;;12.60;99.90;;;;;;5035144;28;19983;-81
2021/11/14 02:41:59;;;;;;;;;;;12.40;99.90;;;;;;5036597;28;19996;-80
2021/11/14 02:44:25;;;;;;;;;;;12.40;99.90;;;;;;5036657;28;19998;-80
2021/11/14 02:46:50;;;;;;;;;;;12.30;99.90;;;;;;5036252;28;19905;-80
2021/11/14 02:49:16;;;;;;;;;;;12.40;99.90;;;;;;5036333;28;19911;-81
2021/11/14 02:51:42;;;;;;;;;;;12.40;99.90;;;;;;5036277;28;19905;-80
2021/11/14 02:54:07;;;;;;;;;;;12.50;99.90;;;;;;5036223;28;19952;-81
2021/11/14 02:56:33;;;;;;;;;;;12.50;99.90;;;;;;5036168;28;20334;-81
2021/11/14 02:58:59;;;;;;;;;;;12.50;99.90;;;;;;5036020;28;19905;-81
2021/11/14 03:01:28;;;;;;;;;;;12.40;99.90;;;;;;5035943;28;19913;-80
2021/11/14 03:03:53;;;;;;;;;;;12.20;99.90;;;;;;5034694;28;20285;-80
2021/11/14 03:06:20;;;;;;;;;;;12.20;99.90;;;;;;5034634;28;19912;-81
2021/11/14 03:08:46;;;;;;;;;;;12.50;99.90;;;;;;5035952;28;19909;-80
2021/11/14 03:11:11;;;;;;;;;;;12.60;99.90;;;;;;5036022;28;19928;-81
2021/11/14 03:13:38;;;;;;;;;;;12.60;99.90;;;;;;5035342;28;19932;-79
2021/11/14 03:16:05;;;;;;;;;;;12.70;99.90;;;;;;5035769;28;19909;-80
2021/11/14 03:18:30;;;;;;;;;;;12.80;99.90;;;;;;5035684;28;19905;-80
2021/11/14 03:20:56;;;;;;;;;;;12.70;99.90;;;;;;5035605;28;19915;-80
2021/11/14 03:23:24;;;;;;;;;;;12.50;99.90;;;;;;5035784;28;20340;-79
2021/11/14 03:25:50;;;;;;;;;;;12.30;99.90;;;;;;5035678;28;19905;-80
2021/11/14 03:28:16;;;;;;;;;;;12.20;99.90;;;;;;5034298;28;20004;-80
2021/11/14 03:30:42;;;;;;;;;;;12.20;99.90;;;;;;5035469;28;20448;-80
2021/11/14 03:33:09;;;;;;;;;;;12.30;99.90;;;;;;5034170;28;19905;-80
2021/11/14 03:35:39;;;;;;;;;;;12.20;99.90;;;;;;5035572;28;19905;-80
2021/11/14 03:38:05;;;;;;;;;;;12.20;99.90;;;;;;5035342;28;20392;-80
2021/11/14 03:40:30;;;;;;;;;;;12.20;99.90;;;;;;5035128;28;19944;-80
2021/11/14 03:42:56;;;;;;;;;;;12.30;99.90;;;;;;5035319;28;19974;-79
2021/11/14 03:45:22;;;;;;;;;;;12.40;99.90;;;;;;5035233;28;19905;-81
2021/11/14 03:47:47;;;;;;;;;;;12.40;99.90;;;;;;5035143;28;19928;-80
2021/11/14 03:50:13;;;;;;;;;;;12.30;99.90;;;;;;5034870;28;20396;-80
2021/11/14 03:52:40;;;;;;;;;;;12.20;99.90;;;;;;5035179;28;19912;-81
2021/11/14 03:55:07;;;;;;;;;;;12.20;99.90;;;;;;5035029;28;19905;-81
2021/11/14 03:57:33;;;;;;;;;;;12.10;99.90;;;;;;5035137;28;20416;-80
2021/11/14 03:59:58;;;;;;;;;;;12.10;99.90;;;;;;5034836;28;19913;-80
2021/11/14 04:02:25;;;;;;;;;;;12.10;99.90;;;;;;5034993;28;19940;-80
2021/11/14 04:04:50;;;;;;;;;;;12.30;99.90;;;;;;5034889;28;20417;-80
2021/11/14 04:07:16;;;;;;;;;;;12.50;99.90;;;;;;5033494;28;19937;-81
2021/11/14 04:09:42;;;;;;;;;;;12.60;99.90;;;;;;5035024;28;19905;-80
2021/11/14 04:12:07;;;;;;;;;;;12.60;99.90;;;;;;5034701;28;19916;-80
2021/11/14 04:14:33;;;;;;;;;;;12.40;99.90;;;;;;5034618;28;19909;-80
2021/11/14 04:16:59;;;;;;;;;;;12.30;99.90;;;;;;5034662;28;19913;-80
2021/11/14 04:19:26;;;;;;;;;;;12.20;99.90;;;;;;5034622;28;19909;-79
2021/11/14 04:21:53;;;;;;;;;;;12.30;99.90;;;;;;5034759;28;20373;-80
2021/11/14 04:24:18;;;;;;;;;;;12.30;99.90;;;;;;5034479;28;19905;-79
2021/11/14 04:26:44;;;;;;;;;;;12.50;99.90;;;;;;5034423;28;20337;-80
2021/11/14 04:29:10;;;;;;;;;;;12.60;99.90;;;;;;5034383;28;19912;-80
2021/11/14 04:31:36;;;;;;;;;;;12.50;99.90;;;;;;5034940;28;19912;-80
2021/11/14 04:34:02;;;;;;;;;;;12.50;99.90;;;;;;5034264;28;19905;-80
2021/11/14 04:36:27;;;;;;;;;;;12.60;99.90;;;;;;5034384;28;19905;-80
2021/11/14 04:38:53;;;;;;;;;;;12.30;99.90;;;;;;5034286;28;19912;-80
2021/11/14 04:41:19;;;;;;;;;;;12.30;99.90;;;;;;5034450;28;19915;-81
2021/11/14 04:43:45;;;;;;;;;;;12.20;99.90;;;;;;5034620;28;20381;-80
2021/11/14 04:46:10;;;;;;;;;;;12.10;99.90;;;;;;5034278;28;19912;-81
2021/11/14 04:48:36;;;;;;;;;;;12.20;99.90;;;;;;5034056;28;19995;-80
2021/11/14 04:51:02;;;;;;;;;;;12.30;99.90;;;;;;5034005;28;19912;-80
2021/11/14 04:53:27;;;;;;;;;;;12.50;99.90;;;;;;5034248;28;19905;-80
2021/11/14 04:55:53;;;;;;;;;;;12.30;99.90;;;;;;5034399;28;19962;-80
2021/11/14 04:58:18;;;;;;;;;;;12.40;99.90;;;;;;5034290;28;19932;-80
2021/11/14 05:00:49;;;;;;;;;;;12.50;99.90;;;;;;5033968;28;20321;-79
2021/11/14 05:03:14;;;;;;;;;;;12.30;99.90;;;;;;5033343;28;19912;-80
2021/11/14 05:05:41;;;;;;;;;;;12.10;99.90;;;;;;5034236;28;19904;-80
2021/11/14 05:08:07;;;;;;;;;;;12.30;99.90;;;;;;5034089;28;19905;-79
2021/11/14 05:10:33;;;;;;;;;;;12.20;99.90;;;;;;5033823;28;19916;-80
2021/11/14 05:13:00;;;;;;;;;;;12.10;99.90;;;;;;5033527;28;19916;-80
2021/11/14 05:15:25;;;;;;;;;;;12.10;99.90;;;;;;5033647;28;19986;-81
2021/11/14 05:17:51;;;;;;;;;;;12.10;99.90;;;;;;5033819;28;19909;-81
2021/11/14 05:20:16;;;;;;;;;;;12.30;99.90;;;;;;5033559;28;19909;-81
2021/11/14 05:22:42;;;;;;;;;;;12.30;99.90;;;;;;5033628;28;20004;-80
2021/11/14 05:25:08;;;;;;;;;;;12.30;99.90;;;;;;5033844;28;20309;-80
2021/11/14 05:27:34;;;;;;;;;;;12.20;99.90;;;;;;5033752;28;20282;-80
2021/11/14 05:29:59;;;;;;;;;;;12.20;99.90;;;;;;5033523;28;19909;-80
2021/11/14 05:32:25;;;;;;;;;;;12.10;99.90;;;;;;5033546;28;20277;-80
2021/11/14 05:34:51;;;;;;;;;;;12.00;99.90;;;;;;5033531;28;19911;-80
2021/11/14 05:37:16;;;;;;;;;;;11.90;99.90;;;;;;5033474;28;19912;-80
2021/11/14 05:39:42;;;;;;;;;;;12.10;99.90;;;;;;5033354;28;19913;-80
2021/11/14 05:42:07;;;;;;;;;;;12.30;99.90;;;;;;5032157;28;19905;-80
2021/11/14 05:44:33;;;;;;;;;;;12.20;99.90;;;;;;5033566;28;20369;-80
2021/11/14 05:46:59;;;;;;;;;;;11.90;99.90;;;;;;5033363;28;19911;-81
2021/11/14 05:49:25;;;;;;;;;;;11.90;99.90;;;;;;5033358;28;20369;-80
2021/11/14 05:51:50;;;;;;;;;;;11.90;99.90;;;;;;5033351;28;19909;-81
2021/11/14 05:54:16;;;;;;;;;;;11.90;99.90;;;;;;5033284;28;19909;-80
2021/11/14 05:56:42;;;;;;;;;;;11.90;99.90;;;;;;5033256;28;19932;-79
2021/11/14 06:01:42;;;;;;;;;;;12.10;99.90;;;;;;5033462;28;20361;-80
2021/11/14 06:06:36;;;;;;;;;;;12.20;99.90;;;;;;5033216;28;19988;-80
2021/11/14 06:09:02;;;;;;;;;;;12.00;99.90;;;;;;5033216;28;20392;-80
2021/11/14 06:11:28;;;;;;;;;;;11.90;99.90;;;;;;5032957;28;19905;-79
2021/11/14 06:13:54;;;;;;;;;;;11.80;99.90;;;;;;5035664;28;20439;-80
2021/11/14 06:16:20;;;;;;;;;;;11.80;99.90;;;;;;5037195;28;19940;-81
2021/11/14 06:18:46;;;;;;;;;;;11.80;99.90;;;;;;5036898;28;19909;-80
2021/11/14 06:21:12;;;;;;;;;;;11.90;99.90;;;;;;5036704;28;19945;-79
2021/11/14 06:23:38;;;;;;;;;;;11.80;99.90;;;;;;5036974;28;19905;-80
2021/11/14 06:26:04;;;;;;;;;;;11.70;99.90;;;;;;5036708;28;20444;-79
2021/11/14 06:28:29;;;;;;;;;;;11.70;99.90;;;;;;5036831;28;20285;-79
2021/11/14 06:30:55;;;;;;;;;;;11.70;99.90;;;;;;5036848;28;20373;-80
2021/11/14 06:33:21;;;;;;;;;;;11.70;99.90;;;;;;5036662;28;19912;-80
2021/11/14 06:35:46;;;;;;;;;;;11.70;99.90;;;;;;5036816;28;20051;-80
2021/11/14 06:38:12;;;;;;;;;;;11.60;99.90;;;;;;5035219;28;19912;-80
2021/11/14 06:40:38;;;;;;;;;;;11.70;99.90;;;;;;5036335;28;20436;-80
2021/11/14 06:43:03;;;;;;;;;;;11.70;99.90;;;;;;5035068;28;19905;-80
2021/11/14 06:45:29;;;;;;;;;;;11.60;99.90;;;;;;5036383;28;19909;-80
2021/11/14 06:47:55;;;;;;;;;;;11.60;99.90;;;;;;5036294;28;20339;-80
2021/11/14 06:50:20;;;;;;;;;;;11.60;99.90;;;;;;5036253;28;19905;-80
2021/11/14 06:52:46;;;;;;;;;;;11.70;99.90;;;;;;5036217;28;19905;-80
2021/11/14 06:55:13;;;;;;;;;;;11.70;99.90;;;;;;5036178;28;20353;-80
2021/11/14 06:57:39;;;;;;;;;;;11.60;99.90;;;;;;5036378;28;19912;-80
2021/11/14 07:00:07;;;;;;;;;;;11.60;99.90;;;;;;5035938;28;19908;-80
2021/11/14 07:02:32;;;;;;;;;;;11.50;99.90;;;;;;5036262;28;19912;-80
2021/11/14 07:04:58;;;;;;;;;;;11.60;99.90;;;;;;5035993;28;19905;-80
2021/11/14 07:07:23;;;;;;;;;;;11.70;99.90;;;;;;5036014;28;19905;-79
2021/11/14 07:09:49;;;;;;;;;;;11.80;99.90;;;;;;5035936;28;19905;-79
2021/11/14 07:12:15;;;;;;;;;;;11.80;99.90;;;;;;5035711;28;19917;-81
2021/11/14 07:14:40;;;;;;;;;;;11.80;99.90;;;;;;5035949;28;19905;-79
2021/11/14 07:17:06;;;;;;;;;;;11.70;99.90;;;;;;5034423;28;20262;-80
2021/11/14 07:19:31;;;;;;;;;;;11.60;99.90;;;;;;5034435;28;19941;-81
2021/11/14 07:21:58;;;;;;;;;;;11.60;99.90;;;;;;5035802;28;19932;-80
2021/11/14 07:24:24;;;;;;;;;;;11.60;99.90;;;;;;5035052;28;20289;-80
2021/11/14 07:26:50;;;;;;;;;;;11.60;99.90;;;;;;5035876;28;19905;-80
2021/11/14 07:29:16;;;;;;;;;;;11.80;99.90;;;;;;5035649;28;20262;-80
2021/11/14 07:31:42;;;;;;;;;;;12.00;99.90;;;;;;5035611;28;19905;-80
2021/11/14 07:34:07;;;;;;;;;;;11.90;99.90;;;;;;5034105;28;19912;-80
2021/11/14 07:36:33;;;;;;;;;;;11.80;99.90;;;;;;5035821;28;19909;-79
2021/11/14 07:38:59;;;;;;;;;;;11.70;99.90;;;;;;5035558;28;20307;-80
2021/11/14 07:41:24;;;;;;;;;;;11.70;99.90;;;;;;5035383;28;19909;-80
2021/11/14 07:43:50;;;;;;;;;;;11.60;99.90;;;;;;5035289;28;19913;-81
2021/11/14 07:46:16;;;;;;;;;;;11.60;99.90;;;;;;5035190;28;20271;-81
2021/11/14 07:48:43;;;;;;;;;;;11.80;99.90;;;;;;5035519;28;19999;-80
2021/11/14 07:51:09;;;;;;;;;;;12.00;99.90;;;;;;5035061;28;20277;-81
2021/11/14 07:53:35;;;;;;;;;;;12.10;99.90;;;;;;5035049;28;19912;-80
2021/11/14 07:56:00;;;;;;;;;;;12.20;99.90;;;;;;5035014;28;19905;-80
2021/11/14 07:58:26;;;;;;;;;;;12.30;99.90;;;;;;5035179;28;19912;-80
2021/11/14 08:00:52;;;;;;;;;;;12.50;99.90;;;;;;5034808;28;20393;-80
2021/11/14 08:03:17;;;;;;;;;;;12.40;99.90;;;;;;5034797;28;19996;-79
2021/11/14 08:05:43;;;;;;;;;;;12.30;99.90;;;;;;5034698;28;19959;-81
2021/11/14 08:08:09;;;;;;;;;;;12.20;99.90;;;;;;5034735;28;20354;-80
2021/11/14 08:10:37;;;;;;;;;;;12.20;99.90;;;;;;5034756;28;19906;-80
2021/11/14 08:13:04;;;;;;;;;;;12.40;99.90;;;;;;5034543;28;19928;-80
2021/11/14 08:15:29;;;;;;;;;;;12.70;99.90;;;;;;5034722;28;19905;-80
2021/11/14 08:17:55;;;;;;;;;;;12.90;99.90;;;;;;5034700;28;20384;-81
2021/11/14 08:20:21;;;;;;;;;;;13.00;99.90;;;;;;5034689;28;19908;-81
2021/11/14 08:22:47;;;;;;;;;;;12.90;99.90;;;;;;5034543;28;19905;-80
2021/11/14 08:25:14;;;;;;;;;;;12.80;99.90;;;;;;5034520;28;19943;-81
2021/11/14 08:27:40;;;;;;;;;;;13.00;99.90;;;;;;5034440;28;20369;-79
2021/11/14 08:30:06;;;;;;;;;;;13.10;99.90;;;;;;5034860;28;19912;-79
2021/11/14 08:32:32;;;;;;;;;;;13.30;99.90;;;;;;5034405;28;19909;-79
2021/11/14 08:34:58;;;;;;;;;;;13.30;99.90;;;;;;5034312;28;19919;-80
2021/11/14 08:37:24;;;;;;;;;;;13.50;99.90;;;;;;5033505;28;20349;-80
2021/11/14 08:39:50;;;;;;;;;;;13.40;99.90;;;;;;5034092;28;19912;-80
2021/11/14 08:42:16;;;;;;;;;;;13.50;99.90;;;;;;5034231;28;19948;-80
2021/11/14 08:44:41;;;;;;;;;;;13.40;99.90;;;;;;5034343;28;20369;-80
2021/11/14 08:47:07;;;;;;;;;;;13.40;99.90;;;;;;5034146;28;19905;-80
2021/11/14 08:49:33;;;;;;;;;;;13.40;99.90;;;;;;5034072;28;19916;-81
2021/11/14 08:51:58;;;;;;;;;;;13.50;99.90;;;;;;5034046;28;19905;-81
2021/11/14 08:54:24;;;;;;;;;;;13.70;99.90;;;;;;5034042;28;19905;-80
2021/11/14 08:56:50;;;;;;;;;;;13.70;99.90;;;;;;5033977;28;19927;-81
2021/11/14 08:59:15;;;;;;;;;;;13.80;99.90;;;;;;5034008;28;19911;-81
2021/11/14 09:01:41;;;;;;;;;;;13.60;99.90;;;;;;5034128;28;19909;-80
2021/11/14 09:04:10;;;;;;;;;;;13.70;99.90;;;;;;5033895;28;19905;-80
2021/11/14 09:06:36;;;;;;;;;;;13.70;99.90;;;;;;5034015;28;19920;-80
2021/11/14 09:09:02;;;;;;;;;;;13.70;99.90;;;;;;5033800;28;20428;-80
2021/11/14 09:11:28;;;;;;;;;;;13.80;99.90;;;;;;5033606;28;19912;-80
2021/11/14 09:13:54;;;;;;;;;;;13.80;99.90;;;;;;5034228;28;20015;-80
2021/11/14 09:16:19;;;;;;;;;;;13.80;99.90;;;;;;5032510;28;19937;-81
2021/11/14 09:18:45;;;;;;;;;;;13.60;99.90;;;;;;5033710;28;19923;-80
2021/11/14 09:21:11;;;;;;;;;;;13.70;99.90;;;;;;5033542;28;19909;-80
2021/11/14 09:23:37;;;;;;;;;;;13.80;99.90;;;;;;5033513;28;19939;-81
2021/11/14 09:26:03;;;;;;;;;;;13.80;99.90;;;;;;5033679;28;19913;-80
2021/11/14 09:28:28;;;;;;;;;;;13.80;99.90;;;;;;5033606;28;19905;-81
2021/11/14 09:30:54;;;;;;;;;;;13.80;99.90;;;;;;5033683;28;19935;-81
2021/11/14 09:33:21;;;;;;;;;;;13.90;99.90;;;;;;5033639;28;20340;-80
2021/11/14 09:35:47;;;;;;;;;;;13.90;99.90;;;;;;5033411;28;19928;-80
2021/11/14 09:38:14;;;;;;;;;;;14.00;99.90;;;;;;5033465;28;20400;-80
2021/11/14 09:40:40;;;;;;;;;;;14.10;99.90;;;;;;5033365;28;19909;-81
2021/11/14 09:43:07;;;;;;;;;;;14.30;99.90;;;;;;5033352;28;19905;-80
2021/11/14 09:45:33;;;;;;;;;;;14.20;99.90;;;;;;5033479;28;19983;-80
2021/11/14 09:47:59;;;;;;;;;;;14.30;99.90;;;;;;5034870;28;20334;-80
2021/11/14 09:50:25;;;;;;;;;;;14.50;99.90;;;;;;5037385;28;19928;-80
2021/11/14 09:52:52;;;;;;;;;;;14.60;99.90;;;;;;5037229;28;19912;-81
2021/11/14 09:55:18;;;;;;;;;;;14.80;99.90;;;;;;5037399;28;20289;-81
2021/11/14 09:57:43;;;;;;;;;;;15.00;99.90;;;;;;5037178;28;19909;-81
2021/11/14 10:00:11;;;;;;;;;;;15.10;99.90;;;;;;5037081;28;20007;-80
2021/11/14 10:02:37;;;;;;;;;;;15.20;99.90;;;;;;5037629;28;19905;-80
2021/11/14 10:05:03;;;;;;;;;;;15.20;99.90;;;;;;5037136;28;19916;-81
2021/11/14 10:07:29;;;;;;;;;;;15.20;99.90;;;;;;5037199;28;20388;-81
2021/11/14 10:09:55;;;;;;;;;;;15.30;99.90;;;;;;5035843;28;20051;-80
2021/11/14 10:12:22;;;;;;;;;;;15.40;99.90;;;;;;5036894;28;20412;-81
2021/11/14 10:14:49;;;;;;;;;;;15.40;99.90;;;;;;5036992;28;19912;-80
2021/11/14 10:17:17;;;;;;;;;;;15.40;99.90;;;;;;5036936;28;19948;-81
2021/11/14 10:19:43;;;;;;;;;;;15.10;99.90;;;;;;5036806;28;19909;-80
2021/11/14 10:22:08;;;;;;;;;;;15.00;99.90;;;;;;5036710;28;20377;-81
2021/11/14 10:24:34;;;;;;;;;;;15.10;99.90;;;;;;5036740;28;19905;-80
2021/11/14 10:27:11;;;;;;;;;;;15.10;99.90;;;;;;5036797;28;19905;-79
2021/11/14 10:29:39;;;;;;;;;;;15.00;99.90;;;;;;5036529;28;19911;-81
2021/11/14 10:32:08;;;;;;;;;;;15.00;99.90;;;;;;5036654;28;20423;-80
2021/11/14 10:34:43;;;;;;;;;;;14.90;99.90;;;;;;5036941;28;19944;-81
2021/11/14 10:37:09;;;;;;;;;;;15.00;99.90;;;;;;5036740;28;19904;-81
2021/11/14 10:39:39;;;;;;;;;;;15.20;99.90;;;;;;5036403;28;19912;-80
2021/11/14 10:42:12;;;;;;;;;;;15.00;99.90;;;;;;5036587;28;20356;-80
2021/11/14 10:44:47;;;;;;;;;;;15.10;99.90;;;;;;5036426;28;20440;-80
2021/11/14 10:47:13;;;;;;;;;;;15.00;99.90;;;;;;5034771;28;19909;-81
2021/11/14 10:50:01;;;;;;;;;;;15.00;99.90;;;;;;5036325;28;19927;-81
2021/11/14 10:52:30;;;;;;;;;;;15.00;99.90;;;;;;5036254;28;19912;-79
2021/11/14 10:55:05;;;;;;;;;;;15.20;99.90;;;;;;5036180;28;20266;-80
2021/11/14 10:57:32;;;;;;;;;;;15.20;99.90;;;;;;5036150;28;19905;-80
2021/11/14 10:59:59;;;;;;;;;;;15.30;99.90;;;;;;5035042;28;19913;-80
2021/11/14 11:02:25;;;;;;;;;;;15.40;99.90;;;;;;5036184;28;19912;-80
2021/11/14 11:04:52;;;;;;;;;;;15.30;99.90;;;;;;5034705;28;20319;-81
2021/11/14 11:07:18;;;;;;;;;;;15.40;99.90;;;;;;5035978;28;19920;-81
2021/11/14 11:09:44;;;;;;;;;;;15.60;99.90;;;;;;5035867;28;19975;-80
2021/11/14 11:12:23;;;;;;;;;;;15.80;99.90;;;;;;5036048;28;20381;-80
2021/11/14 11:14:50;;;;;;;;;;;16.10;99.90;;;;;;5036285;28;20349;-80
2021/11/14 11:17:16;;;;;;;;;;;16.40;99.90;;;;;;5034507;28;19905;-81
2021/11/14 11:19:41;;;;;;;;;;;16.50;99.90;;;;;;5034469;28;19970;-80
2021/11/14 11:22:07;;;;;;;;;;;16.50;99.90;;;;;;5035678;28;20419;-80
2021/11/14 11:24:33;;;;;;;;;;;16.80;99.90;;;;;;5036253;28;20373;-81
2021/11/14 11:27:01;;;;;;;;;;;16.90;99.60;;;;;;5035654;28;19941;-80
2021/11/14 11:29:27;;;;;;;;;;;16.80;99.90;;;;;;5035566;28;19905;-81
2021/11/14 11:31:53;;;;;;;;;;;17.10;98.30;;;;;;5034113;28;19905;-81
2021/11/14 11:34:19;;;;;;;;;;;17.40;97.80;;;;;;5034225;28;20048;-81
2021/11/14 11:36:46;;;;;;;;;;;17.60;96.60;;;;;;5035843;28;20317;-81
2021/11/14 11:39:11;;;;;;;;;;;17.70;96.10;;;;;;5035629;28;19911;-81
2021/11/14 11:41:40;;;;;;;;;;;17.40;95.50;;;;;;5035337;28;20003;-80
2021/11/14 11:44:06;;;;;;;;;;;17.70;95.80;;;;;;5035355;28;19944;-81
2021/11/14 11:46:34;;;;;;;;;;;18.20;93.50;;;;;;5035258;28;19937;-81
2021/11/14 11:49:05;;;;;;;;;;;18.00;93.90;;;;;;5035196;28;19944;-81
2021/11/14 11:51:36;;;;;;;;;;;18.00;93.50;;;;;;5035178;28;19995;-80
2021/11/14 11:54:02;;;;;;;;;;;17.70;93.80;;;;;;5035165;28;19964;-81
2021/11/14 11:56:38;;;;;;;;;;;17.40;94.40;;;;;;5035251;28;19909;-81
2021/11/14 11:59:15;;;;;;;;;;;17.40;94.30;;;;;;5034964;28;19947;-80
2021/11/14 12:02:02;;;;;;;;;;;17.00;95.20;;;;;;5034847;28;19909;-80
2021/11/14 12:04:32;;;;;;;;;;;17.00;94.70;;;;;;5035039;28;19909;-82
2021/11/14 12:06:59;;;;;;;;;;;17.00;94.60;;;;;;5034995;28;20254;-80
2021/11/14 12:09:28;;;;;;;;;;;17.00;94.90;;;;;;5034712;28;19905;-80
2021/11/14 12:11:53;;;;;;;;;;;16.90;94.40;;;;;;5033070;28;19921;-81
2021/11/14 12:14:21;;;;;;;;;;;17.00;94.10;;;;;;5034872;28;20328;-80
2021/11/14 12:16:58;;;;;;;;;;;17.30;93.60;;;;;;5034761;28;19955;-80
2021/11/14 12:19:25;;;;;;;;;;;17.70;93.50;;;;;;5034602;28;20023;-81
2021/11/14 12:21:58;;;;;;;;;;;17.90;91.90;;;;;;5033170;28;19912;-81
2021/11/14 12:24:24;;;;;;;;;;;17.90;91.40;;;;;;5034458;28;19971;-81
2021/11/14 12:26:50;;;;;;;;;;;18.00;91.10;;;;;;5034476;28;19905;-81
2021/11/14 12:29:31;;;;;;;;;;;17.70;91.30;;;;;;5034440;28;19912;-81
2021/11/14 12:31:58;;;;;;;;;;;17.40;91.00;;;;;;5034324;28;19905;-80
2021/11/14 12:34:25;;;;;;;;;;;17.10;92.10;;;;;;5034350;28;19954;-80
2021/11/14 12:36:51;;;;;;;;;;;16.80;92.20;;;;;;5034435;28;19905;-80
2021/11/14 12:39:22;;;;;;;;;;;16.70;93.10;;;;;;5034293;28;19905;-80
2021/11/14 12:41:59;;;;;;;;;;;16.80;91.80;;;;;;5034207;28;19924;-81
2021/11/14 12:44:35;;;;;;;;;;;16.90;92.20;;;;;;5034453;28;20328;-80
2021/11/14 12:47:12;;;;;;;;;;;16.90;93.10;;;;;;5034436;28;19905;-81
2021/11/14 12:49:38;;;;;;;;;;;17.00;93.20;;;;;;5032504;28;19913;-80
2021/11/14 12:52:06;;;;;;;;;;;17.00;92.90;;;;;;5034072;28;19909;-80
2021/11/14 12:54:32;;;;;;;;;;;16.70;92.10;;;;;;5034188;28;19905;-80
2021/11/14 12:57:06;;;;;;;;;;;16.70;92.50;;;;;;5034018;28;19912;-81
2021/11/14 12:59:32;;;;;;;;;;;16.20;93.50;;;;;;5034250;28;20023;-80
2021/11/14 13:02:02;;;;;;;;;;;16.30;94.50;;;;;;5033775;28;20385;-80
2021/11/14 13:04:33;;;;;;;;;;;16.30;93.20;;;;;;5033791;28;19995;-80
2021/11/14 13:07:00;;;;;;;;;;;16.30;93.50;;;;;;5033835;28;19909;-81
2021/11/14 13:09:27;;;;;;;;;;;16.30;92.60;;;;;;5033549;28;19943;-80
2021/11/14 13:12:06;;;;;;;;;;;16.40;93.00;;;;;;5033507;28;19960;-81
2021/11/14 13:14:36;;;;;;;;;;;16.50;92.30;;;;;;5033647;28;19912;-81
2021/11/14 13:17:03;;;;;;;;;;;16.30;92.80;;;;;;5033719;28;19905;-81
2021/11/14 13:19:28;;;;;;;;;;;16.50;92.40;;;;;;5033633;28;19905;-81
2021/11/14 13:21:54;;;;;;;;;;;16.40;92.50;;;;;;5033592;28;19932;-81
2021/11/14 13:24:20;;;;;;;;;;;16.50;92.30;;;;;;5031833;28;19905;-81
2021/11/14 13:26:48;;;;;;;;;;;16.50;92.50;;;;;;5033534;28;19992;-80
2021/11/14 13:29:17;;;;;;;;;;;16.70;92.10;;;;;;5033543;28;19909;-80
2021/11/14 13:31:47;;;;;;;;;;;16.60;91.60;;;;;;5033542;28;19909;-81
2021/11/14 13:34:14;;;;;;;;;;;16.60;92.10;;;;;;5033918;28;19953;-81
2021/11/14 13:36:51;;;;;;;;;;;16.50;92.20;;;;;;5033660;28;19905;-81
2021/11/14 13:39:25;;;;;;;;;;;16.30;92.80;;;;;;5032042;28;19905;-81
2021/11/14 13:41:55;;;;;;;;;;;16.60;92.90;;;;;;5031893;28;19999;-82
2021/11/14 13:44:28;;;;;;;;;;;16.60;92.50;;;;;;5033647;28;20362;-80
2021/11/14 13:47:11;;;;;;;;;;;16.50;92.90;;;;;;5033813;28;19944;-81
2021/11/14 13:49:37;;;;;;;;;;;16.00;93.40;;;;;;5033553;28;19940;-81
2021/11/14 13:52:04;;;;;;;;;;;15.90;93.50;;;;;;5033458;28;19967;-80
2021/11/14 13:54:30;;;;;;;;;;;16.00;93.00;;;;;;5033457;28;19905;-81
2021/11/14 13:56:55;;;;;;;;;;;16.40;92.40;;;;;;5033411;28;20273;-81
2021/11/14 13:59:21;;;;;;;;;;;16.50;92.20;;;;;;5033203;28;19939;-79
2021/11/14 14:01:54;;;;;;;;;;;16.60;91.80;;;;;;5033277;28;19909;-80
2021/11/14 14:04:20;;;;;;;;;;;16.50;92.30;;;;;;5033213;28;19952;-81
2021/11/14 14:06:56;;;;;;;;;;;16.20;92.60;;;;;;5033535;28;19947;-80
2021/11/14 14:09:21;;;;;;;;;;;15.90;93.20;;;;;;5033238;28;20412;-81
2021/11/14 14:11:47;;;;;;;;;;;15.60;93.80;;;;;;5033194;28;19913;-79
2021/11/14 14:14:13;;;;;;;;;;;15.60;94.00;;;;;;5033299;28;19953;-80
2021/11/14 14:16:38;;;;;;;;;;;15.50;93.40;;;;;;5033193;28;19909;-81
2021/11/14 14:19:04;;;;;;;;;;;15.50;93.80;;;;;;5033202;28;19913;-80